Portada
METAR-TAF:

METAR-TAF

Aeroports :

David, Panamà

latitud: 08-24N, longitud: 082-25W, altitud: 29 m

Observació

L'informe es va fer fa 10 hores i 36 minuts, a les 23:00 UTC
Vent 7 kt del Oest/Sud-Oest
Temperatura 29°C
Humitat 84%
Pressió 1008 hPa
Visibilitat 10 km o més
Núvols disperses a una alçada de 1800 ft

METAR: MPDA 022300Z 24007KT 9999 SCT018 29/26 Q1008

Hora: 04:36 (09:36 UTC)

Pronòstic

L'informe es va fer fa 16 hores i 36 minuts, a les 17:00 UTC
Pronòstic vàlid del 02 a les 18 UTC al 03 a les 06 UTC
Vent 5 kt del Sud-Oest
Visibilitat 10 km o més
Núvols disperses a una alçada de 1800 ft
Núvols disperses a una alçada de 9000 ft
Probabilitat 40%
l' 02 a les 20 UTC al 02 a les 24 UTC
Vent 8 kt del Sud
Visibilitat: 6000 m
Núvols disperses a una alçada de 1500 ft, Cumulonimbus.
Cel ennuvolat a una alçada de 8000 ft
tempesta, pluja

TAF: MPDA 021700Z 0218/0306 22005KT 9999 SCT018 SCT090 PROB40 0220/0224 18008KT 6000 TSRA SCT015CB BKN080

Observacions i pronòstics meteorològics de més de 4000 aeroports (METAR i TAF).

Les estacions disponibles són els punts grocs i vermells al mapa.

Posi el ratolí al punt desitjat per veure el nom de l'estació.

Feu clic per veure les observacions i els pronòstics meteorològics.

Per canviar el mapa: feu clic els botons verds amb una creu de color negre per apropar; al botó verd amb un guió per allunyar la imatge; o en les fletxes verdes per a mapes adjacents.


METAR-TAF: